• Join FlightAware (Why Join?)
  • Login
  • US Flag 
03:16PM EST


 

Airport Tracker/Info


-or-


 

Live Flight TrackerFlight Track Log ✈ EJA922 ✈ 13-Jul-2014 ✈ KIAH - KBUR

Flight Track Log - Related Links

Times and Time Zones

All times are in EDT time to prevent confusion due to time zone crossing. See the EJA922 flight status page for this flight to view local times or setup timezone preferences in your user account.

Time Position Orientation Groundspeed Altitude Reporting Facility
EDT Latitude Longitude Course Direction KTS MPH feet Rate Location/Type
07:25AM 29.9594 -95.3414 217° Southwest 192 221 900  Level Houston Center
07:26AM 29.9206 -95.3750 217° Southwest 238 274 3,600 2,700 Climbing Houston Center
07:27AM 29.9133 -95.4578 264° West 282 325 5,900 2,700 Climbing Houston Center
07:27AM 29.9253 -95.5433 279° West 291 335 8,800 3,000 Climbing Houston Center
07:28AM 29.9308 -95.5572 295° West 292 336 9,300 1,800 Climbing Houston Center
07:29AM 29.9578 -95.6500 289° West 305 351 11,000 1,620 Climbing Houston Center
07:30AM 29.9897 -95.7619 288° West 359 413 12,600 1,740 Climbing Houston Center
07:31AM 30.0214 -95.8783 287° West 376 433 14,600 1,920 Climbing Houston Center
07:32AM 30.0539 -96.0003 287° West 393 452 16,500 1,740 Climbing Houston Center
07:33AM 30.0800 -96.1111 285° West 394 453 18,200 1,920 Climbing Houston Center
07:34AM 30.1119 -96.2597 284° West 397 457 20,500 1,740 Climbing Houston Center
07:35AM 30.1333 -96.3633 283° West 402 463 21,800 1,500 Climbing Houston Center
07:36AM 30.1661 -96.5211 284° West 419 482 23,600 1,620 Climbing Houston Center
07:37AM 30.1950 -96.6553 284° West 427 491 25,100 1,440 Climbing Houston Center
07:38AM 30.2233 -96.7939 283° West 439 505 26,600 1,440 Climbing Houston Center
07:39AM 30.2522 -96.9342 283° West 442 509 28,100 1,440 Climbing Houston Center
07:40AM 30.2811 -97.0764 283° West 449 517 29,600 1,440 Climbing Houston Center
07:41AM 30.3106 -97.2164 284° West 448 516 31,100 1,380 Climbing Houston Center
07:42AM 30.3386 -97.3622 283° West 458 527 32,400 1,140 Climbing Houston Center
07:43AM 30.3697 -97.5100 284° West 466 536 33,400 900 Climbing Houston Center
07:44AM 30.3994 -97.6614 283° West 477 549 34,300 900 Climbing Houston Center
07:45AM 30.4325 -97.8158 284° West 490 564 35,300 960 Climbing Houston Center
07:46AM 30.4739 -97.9694 287° West 495 570 36,300 1,140 Climbing Houston Center
07:47AM 30.5156 -98.1253 287° West 502 578 37,700 1,380 Climbing Houston Center
07:48AM 30.5558 -98.2783 287° West 499 574 39,200 1,440 Climbing Houston Center
07:49AM 30.5953 -98.4289 287° West 491 565 40,700 1,380 Climbing Houston Center
07:50AM 30.6347 -98.5778 287° West 485 558 42,000 1,080 Climbing Houston Center
07:51AM 30.6739 -98.7269 287° West 483 556 43,000 480 Climbing Houston Center
07:52AM 30.7119 -98.8783 286° West 488 562 43,000  Level Houston Center
07:53AM 30.7531 -99.0358 287° West 507 583 43,000  Level Houston Center
07:54AM 30.8008 -99.2211 287° West 516 594 43,000  Level Houston Center
07:55AM 30.8411 -99.3797 287° West 516 594 43,000  Level Houston Center
07:56AM 30.8811 -99.5369 287° West 515 593 43,000  Level Houston Center
07:57AM 30.9208 -99.6947 286° West 514 592 43,000  Level Houston Center
07:58AM 30.9594 -99.8503 286° West 508 585 43,000  Level Houston Center
07:59AM 30.9989 -100.0075 286° West 507 583 43,000  Level Houston Center
08:00AM 31.0378 -100.1658 286° West 508 585 43,000  Level Houston Center
08:01AM 31.0761 -100.3233 286° West 508 585 43,000  Level Houston Center
08:02AM 31.1144 -100.4808 286° West 508 585 43,000  Level Houston Center
08:03AM 31.1531 -100.6394 286° West 508 585 43,000  Level Houston Center
08:04AM 31.1925 -100.7983 286° West 509 586 43,000  Level Houston Center
08:05AM 31.2375 -100.9886 286° West 509 586 43,000  Level Houston Center
08:06AM 31.2706 -101.1311 285° West 509 586 43,000  Level Houston Center
08:07AM 31.3092 -101.2903 286° West 509 586 43,000  Level Houston Center
08:08AM 31.3467 -101.4475 286° West 509 586 43,000  Level Houston Center
08:09AM 31.3928 -101.6381 286° West 509 586 43,000  Level Fort Worth Center
08:10AM 31.4297 -101.7964 285° West 509 586 43,000  Level Fort Worth Center
08:11AM 31.4739 -101.9869 285° West 510 587 43,000  Level Fort Worth Center
08:12AM 31.5097 -102.1458 285° West 513 590 43,000  Level Fort Worth Center
08:13AM 31.5442 -102.3042 284° West 514 592 43,000  Level Fort Worth Center
08:14AM 31.5808 -102.4631 285° West 514 592 43,000  Level Fort Worth Center
08:15AM 31.6150 -102.6231 284° West 513 590 43,000  Level Fort Worth Center
08:16AM 31.6511 -102.7825 285° West 513 590 43,000  Level Fort Worth Center
08:17AM 31.6850 -102.9433 284° West 511 588 43,000  Level Fort Worth Center
08:18AM 31.7219 -103.1025 285° West 510 587 43,000 -60 Level Fort Worth Center
08:20AM 31.7639 -103.2958 284° West 510 587 42,900  Descending Fort Worth Center
08:21AM 31.7983 -103.4564 284° West 508 585 43,000  Climbing Fort Worth Center
08:22AM 31.8322 -103.6164 284° West 508 585 43,000  Level Fort Worth Center
08:23AM 31.8667 -103.7767 284° West 508 585 43,000  Level Fort Worth Center
08:24AM 31.9006 -103.9378 284° West 508 585 43,000  Level Fort Worth Center
08:25AM 31.9347 -104.0986 284° West 508 585 43,000  Level Fort Worth Center
08:26AM 31.9694 -104.2594 284° West 508 585 43,000  Level Fort Worth Center
08:27AM 32.0025 -104.4228 283° West 509 586 43,000  Level Fort Worth Center
08:28AM 32.0381 -104.5942 284° West 509 586 43,000  Level Fort Worth Center
08:29AM 32.0706 -104.7575 283° West 510 587 43,000  Level Fort Worth Center
08:30AM 32.1069 -104.9222 285° West 513 590 43,000  Level Fort Worth Center
08:31AM 32.1372 -105.0867 282° West 513 590 43,000  Level Fort Worth Center
08:32AM 32.1711 -105.2511 284° West 514 592 43,000  Level Fort Worth Center
08:33AM 32.2125 -105.4375 285° West 515 593 43,000  Level Albuquerque Center
08:34AM 32.2447 -105.6008 283° West 514 592 43,000  Level Albuquerque Center
08:35AM 32.2772 -105.7614 284° West 511 588 43,000 -60 Level Albuquerque Center
08:36AM 32.3094 -105.9267 283° West 513 590 42,900  Descending Albuquerque Center
08:37AM 32.3414 -106.0908 283° West 513 590 43,000  Climbing Albuquerque Center
08:38AM 32.3733 -106.2536 283° West 515 593 43,000  Level Albuquerque Center
08:39AM 32.4053 -106.4181 283° West 517 595 43,000  Level Albuquerque Center
08:40AM 32.4428 -106.6153 283° West 515 593 43,000  Level Albuquerque Center
08:41AM 32.4742 -106.7781 283° West 514 592 43,000 -60 Level Albuquerque Center
08:42AM 32.5031 -106.9453 282° West 510 587 42,900  Descending Albuquerque Center
08:43AM 32.5344 -107.1083 283° West 510 587 43,000  Climbing Albuquerque Center
08:44AM 32.5636 -107.2736 282° West 510 587 43,000  Level Albuquerque Center
08:45AM 32.5936 -107.4375 282° West 510 587 43,000  Level Albuquerque Center
08:46AM 32.6192 -107.5828 282° West 510 587 43,000 -60 Level Albuquerque Center
08:47AM 32.6483 -107.7450 282° West 509 586 42,900  Descending Albuquerque Center
08:48AM 32.6817 -107.9278 282° West 509 586 43,000  Climbing Albuquerque Center
08:49AM 32.7108 -108.0917 282° West 509 586 43,000  Level Albuquerque Center
08:50AM 32.7400 -108.2547 282° West 509 586 43,000  Level Albuquerque Center
08:51AM 32.7689 -108.4203 282° West 509 586 43,000  Level Albuquerque Center
08:52AM 32.7975 -108.5853 282° West 509 586 43,000  Level Albuquerque Center
08:53AM 32.8258 -108.7522 281° West 510 587 43,000 -60 Level Albuquerque Center
08:54AM 32.8575 -108.9311 282° West 519 597 42,900  Descending Albuquerque Center
08:55AM 32.8839 -109.0983 281° West 518 596 43,000  Climbing Albuquerque Center
08:56AM 32.9131 -109.2686 282° West 519 597 43,000  Level Albuquerque Center
08:57AM 32.9422 -109.4342 282° West 518 596 43,000  Level Albuquerque Center
08:58AM 32.9692 -109.6003 281° West 516 594 43,000  Level Albuquerque Center
08:59AM 32.9972 -109.7664 281° West 514 592 43,000  Level Albuquerque Center
09:00AM 33.0247 -109.9325 281° West 513 590 43,000  Level Albuquerque Center
09:01AM 33.0511 -110.0983 281° West 513 590 43,000  Level Albuquerque Center
09:02AM 33.0783 -110.2653 281° West 513 590 43,000  Level Albuquerque Center
09:03AM 33.1039 -110.4331 280° West 513 590 43,000  Level Albuquerque Center
09:04AM 33.1300 -110.6000 281° West 513 590 43,000  Level Albuquerque Center
09:05AM 33.1572 -110.7744 281° West 513 590 43,000  Level Albuquerque Center
09:06AM 33.1831 -110.9408 281° West 513 590 43,000  Level Albuquerque Center
09:07AM 33.2081 -111.1050 280° West 504 580 43,000  Level Albuquerque Center
09:08AM 33.2328 -111.2697 280° West 503 579 43,000  Level Albuquerque Center
09:09AM 33.2561 -111.4367 280° West 505 581 43,000  Level Albuquerque Center
09:10AM 33.2811 -111.6008 280° West 503 579 43,000  Level Albuquerque Center
09:11AM 33.3056 -111.7667 280° West 503 579 43,000  Level Albuquerque Center
09:12AM 33.3286 -111.9308 280° West 503 579 43,000  Level Albuquerque Center
09:13AM 33.3519 -112.0942 280° West 500 575 43,000  Level Albuquerque Center
09:14AM 33.3747 -112.2575 280° West 500 575 43,000  Level Albuquerque Center
09:15AM 33.3975 -112.4236 279° West 501 577 43,000  Level Albuquerque Center
09:16AM 33.4206 -112.5875 280° West 500 575 43,000  Level Albuquerque Center
09:17AM 33.4439 -112.7544 280° West 500 575 43,000  Level Albuquerque Center
09:18AM 33.4661 -112.9194 279° West 500 575 43,000  Level Albuquerque Center
09:19AM 33.4878 -113.0844 279° West 500 575 43,000  Level Albuquerque Center
09:20AM 33.5086 -113.2489 279° West 501 577 43,000  Level Albuquerque Center
09:21AM 33.5300 -113.4139 279° West 501 577 43,000  Level Albuquerque Center
09:22AM 33.5550 -113.6119 279° West 501 577 43,000  Level Albuquerque Center
09:23AM 33.5753 -113.7769 278° West 501 577 43,000  Level Albuquerque Center
09:24AM 33.5944 -113.9417 278° West 501 577 43,000  Level Albuquerque Center
09:25AM 33.6139 -114.1100 278° West 501 577 43,000  Level Albuquerque Center
09:26AM 33.6339 -114.2717 278° West 501 577 43,000  Level Albuquerque Center
09:27AM 33.6536 -114.4367 278° West 501 577 43,000  Level Albuquerque Center
09:29AM 33.6847 -114.6944 278° West 499 574 43,000  Level Los Angeles Center
09:30AM 33.7039 -114.8586 278° West 499 574 43,000  Level Los Angeles Center
09:31AM 33.7233 -115.0233 278° West 499 574 43,000  Level Los Angeles Center
09:32AM 33.7406 -115.1881 277° West 499 574 43,000 -1,140 Level Los Angeles Center
09:33AM 33.7592 -115.3525 278° West 499 574 40,700 -2,520 Descending Los Angeles Center
09:34AM 33.7758 -115.5189 277° West 504 580 38,000 -2,700 Descending Los Angeles Center
09:35AM 33.7947 -115.6875 278° West 508 585 35,300 -2,760 Descending Los Angeles Center
09:36AM 33.8122 -115.8628 277° West 526 605 32,500 -2,820 Descending Los Angeles Center
09:37AM 33.8303 -116.0392 277° West 531 611 29,700 -3,000 Descending Los Angeles Center
09:38AM 33.8511 -116.2467 277° West 526 605 26,400 -2,700 Descending Los Angeles Center
09:39AM 33.8681 -116.4136 277° West 510 587 24,300 -3,480 Descending Los Angeles Center
09:40AM 33.8778 -116.5836 274° West 512 589 19,400 -4,320 Descending Los Angeles Center
09:41AM 33.8833 -116.7364 273° West 466 536 15,600 -2,760 Descending Los Angeles Center
09:42AM 33.8981 -116.8858 277° West 457 526 13,900 -1,260 Descending Los Angeles Center
09:43AM 33.9283 -117.0308 284° West 449 517 13,100 -900 Descending Los Angeles Center
09:44AM 33.9589 -117.1867 283° West 445 512 12,100 -1,200 Descending Los Angeles Center
09:45AM 33.9867 -117.3256 284° West 434 499 10,700 -1,500 Descending Los Angeles Center
09:46AM 34.0086 -117.4294 284° West 325 374 9,100 -1,380 Descending Los Angeles Center
09:47AM 34.0278 -117.5272 283° West 306 352 8,000 -540 Descending Los Angeles Center
09:48AM 34.0500 -117.6333 284° West 295 339 8,000  Level Southern California TRACON
09:49AM 34.0667 -117.7333 281° West 297 342 8,000  Level Southern California TRACON
09:50AM 34.0833 -117.8333 281° West 306 352 8,000  Level Southern California TRACON
09:51AM 34.1167 -117.9333 292° West 307 353 8,000  Level Southern California TRACON
09:52AM 34.1314 -118.0378 280° West 305 351 8,000 -300 Level Los Angeles Center
09:53AM 34.1497 -118.1397 282° West 310 357 7,500 -1,020 Descending Los Angeles Center
09:54AM 34.1572 -118.2378 275° West 305 351 6,000 -1,440 Descending Los Angeles Center
09:55AM 34.1667 -118.3167 278° West 250 288 4,700 -1,740 Descending Southern California TRACON
09:56AM 34.1667 -118.3833 270° West 176 203 2,600 -1,620 Descending Southern California TRACON
09:57AM 34.2000 -118.4000 338° Northwest 137 158 1,500 -780 Descending Southern California TRACON
09:58AM 34.2011 -118.3619 88° East 153 176 1,000 -480 Descending Los Angeles Center
10:00AM 34.2000 -118.3500 90° East  Level FlightAware Approximate
10:07AM 34.2007 -118.3587 90° East  Level Estimated